Time;durP1;ratioP1;P1;durP2;ratioP2;P2;SDS_P1;SDS_P2;PMS_P1;PMS_P2;Temp;Humidity;BMP_temperature;BMP_pressure;BME280_temperature;BME280_humidity;BME280_pressure;Samples;Min_cycle;Max_cycle;Signal;HPM_P1;HPM_P2
2022/12/21 00:01:23;;;;;;;56.72;24.35;;;;;;;7.21;100.00;100317.69;5007706;28;20121;-74
2022/12/21 00:03:54;;;;;;;61.22;25.10;;;;;;;7.22;100.00;100324.69;5015379;28;20584;-73
2022/12/21 00:06:21;;;;;;;63.67;24.95;;;;;;;7.16;100.00;100321.66;5012195;28;20045;-71
2022/12/21 00:08:48;;;;;;;67.65;24.60;;;;;;;7.11;100.00;100312.44;5015832;28;20394;-73
2022/12/21 00:11:14;;;;;;;63.55;21.10;;;;;;;7.03;100.00;100310.56;4999331;28;20076;-74
2022/12/21 00:13:41;;;;;;;120.45;27.83;;;;;;;6.97;100.00;100319.94;5017119;28;20504;-71
2022/12/21 00:16:10;;;;;;;44.33;20.02;;;;;;;6.94;100.00;100319.41;5005935;28;20029;-73
2022/12/21 00:18:36;;;;;;;63.97;23.38;;;;;;;6.93;100.00;100323.91;4995553;28;20096;-74
2022/12/21 00:21:05;;;;;;;93.32;24.52;;;;;;;6.90;100.00;100320.69;4997540;28;20037;-75
2022/12/21 00:23:32;;;;;;;190.15;32.67;;;;;;;6.86;100.00;100330.78;5014870;28;20026;-71
2022/12/21 00:25:59;;;;;;;75.03;22.05;;;;;;;6.87;100.00;100331.59;5016222;28;20034;-74
2022/12/21 00:28:25;;;;;;;80.93;21.73;;;;;;;6.84;100.00;100316.00;5012653;28;20120;-72
2022/12/21 00:30:51;;;;;;;93.32;24.73;;;;;;;6.83;100.00;100311.66;4992833;28;20033;-71
2022/12/21 00:33:16;;;;;;;42.57;17.77;;;;;;;6.83;100.00;100309.00;5015438;28;20384;-75
2022/12/21 00:35:49;;;;;;;53.40;18.63;;;;;;;6.81;100.00;100319.75;4982468;28;20048;-74
2022/12/21 00:38:16;;;;;;;97.80;22.65;;;;;;;6.80;100.00;100319.91;5017014;28;20074;-74
2022/12/21 00:40:41;;;;;;;;;;;;;;;6.78;100.00;100321.88;4998890;28;20037;-71
2022/12/21 00:43:06;;;;;;;104.20;25.05;;;;;;;6.73;100.00;100323.16;5005599;28;19917;-71
2022/12/21 00:45:32;;;;;;;58.57;21.90;;;;;;;6.76;100.00;100314.88;5000046;28;20391;-74
2022/12/21 00:47:57;;;;;;;62.93;22.27;;;;;;;6.73;100.00;100309.88;5003831;28;20044;-72
2022/12/21 00:50:23;;;;;;;84.93;22.57;;;;;;;6.70;100.00;100320.81;5013335;28;20132;-74
2022/12/21 00:52:48;;;;;;;67.27;21.73;;;;;;;6.70;100.00;100323.47;4989475;28;20032;-73
2022/12/21 00:55:13;;;;;;;279.87;40.83;;;;;;;6.65;100.00;100323.06;5004634;28;20486;-70
2022/12/21 00:57:38;;;;;;;45.73;19.37;;;;;;;6.70;100.00;100328.78;5025767;28;20034;-73
2022/12/21 01:00:04;;;;;;;56.93;20.87;;;;;;;6.67;100.00;100336.16;5017403;28;20034;-74
2022/12/21 01:02:30;;;;;;;57.05;16.88;;;;;;;6.69;100.00;100339.50;5016299;28;20069;-73
2022/12/21 01:04:55;;;;;;;260.97;26.90;;;;;;;6.65;100.00;100356.69;5003178;28;20068;-74
2022/12/21 01:07:20;;;;;;;366.30;39.50;;;;;;;6.54;100.00;100355.91;5020494;28;20041;-74
2022/12/21 01:09:46;;;;;;;64.93;14.80;;;;;;;6.46;100.00;100347.88;5008497;28;20037;-71
2022/12/21 01:12:11;;;;;;;310.53;30.57;;;;;;;6.42;100.00;100353.59;5000909;28;20554;-74
2022/12/21 01:14:36;;;;;;;131.77;25.13;;;;;;;6.48;100.00;100356.50;5019291;28;20521;-74
2022/12/21 01:17:04;;;;;;;54.08;18.40;;;;;;;6.50;100.00;100356.34;5017000;28;20034;-74
2022/12/21 01:19:29;;;;;;;194.20;29.87;;;;;;;6.54;100.00;100368.34;5011745;28;20121;-72
2022/12/21 01:21:57;;;;;;;97.63;21.85;;;;;;;6.48;100.00;100353.00;5012714;28;20559;-74
2022/12/21 01:24:22;;;;;;;101.77;22.17;;;;;;;6.43;100.00;100355.25;5009922;28;20144;-73
2022/12/21 01:26:47;;;;;;;90.60;23.43;;;;;;;6.44;100.00;100356.94;5000244;28;20130;-74
2022/12/21 01:29:13;;;;;;;58.00;19.93;;;;;;;6.46;100.00;100354.97;5013484;28;20056;-74
2022/12/21 01:31:39;;;;;;;101.18;22.00;;;;;;;6.45;100.00;100348.00;5019426;28;20029;-72
2022/12/21 01:34:08;;;;;;;76.57;23.77;;;;;;;6.46;100.00;100345.22;5000728;28;20403;-74
2022/12/21 01:36:33;;;;;;;81.03;23.23;;;;;;;6.50;100.00;100354.53;5020110;28;20037;-74
2022/12/21 01:39:02;;;;;;;82.85;23.02;;;;;;;6.42;100.00;100340.34;5017225;28;20034;-74
2022/12/21 01:41:29;;;;;;;68.18;20.75;;;;;;;6.52;100.00;100354.41;5023332;28;20048;-74
2022/12/21 01:44:02;;;;;;;172.02;25.27;;;;;;;6.45;100.00;100342.69;5020835;28;20131;-71
2022/12/21 01:46:41;;;;;;;478.90;51.85;;;;;;;6.43;100.00;100356.09;5015751;28;20034;-74
2022/12/21 01:49:17;;;;;;;112.72;27.55;;;;;;;6.53;100.00;100356.91;4990821;28;20128;-74
2022/12/21 01:51:49;;;;;;;80.13;27.10;;;;;;;6.55;100.00;100351.44;5003810;28;20130;-71
2022/12/21 01:54:21;;;;;;;246.40;43.47;;;;;;;6.59;100.00;100352.81;4996886;28;20639;-70
2022/12/21 01:56:50;;;;;;;95.25;24.60;;;;;;;6.58;100.00;100347.66;5000453;28;20037;-74
2022/12/21 01:59:36;;;;;;;69.28;25.90;;;;;;;6.53;100.00;100345.44;5017789;28;20026;-74
2022/12/21 02:02:09;;;;;;;;;;;;;;;6.60;100.00;100346.53;5013032;28;20052;-74
2022/12/21 02:04:39;;;;;;;74.30;24.83;;;;;;;6.67;100.00;100346.78;5006455;28;20315;-74
2022/12/21 02:07:04;;;;;;;63.58;21.73;;;;;;;6.62;100.00;100347.22;5001890;28;20047;-70
2022/12/21 02:09:33;;;;;;;57.30;20.27;;;;;;;6.57;100.00;100346.81;5020690;28;20037;-74
2022/12/21 02:12:03;;;;;;;118.13;20.88;;;;;;;6.52;100.00;100341.97;5006367;28;20040;-74
2022/12/21 02:14:34;;;;;;;378.65;36.97;;;;;;;6.43;100.00;100334.06;5023494;28;20091;-74
2022/12/21 02:17:30;;;;;;;74.00;15.23;;;;;;;6.34;100.00;100335.75;5022222;28;20037;-71
2022/12/21 02:20:26;;;;;;;44.28;13.82;;;;;;;6.36;100.00;100343.56;5013770;28;20037;-72
2022/12/21 02:23:21;;;;;;;33.78;13.93;;;;;;;6.30;100.00;100343.19;5014490;28;20034;-72
2022/12/21 02:26:10;;;;;;;27.23;9.05;;;;;;;6.29;100.00;100349.44;5015639;28;20045;-74
2022/12/21 02:29:00;;;;;;;40.33;14.88;;;;;;;6.31;100.00;100351.97;4978181;28;20037;-74
2022/12/21 02:31:47;;;;;;;36.45;14.50;;;;;;;6.28;100.00;100353.09;4996882;28;20486;-74
2022/12/21 02:34:31;;;;;;;53.53;16.42;;;;;;;6.25;100.00;100341.91;5017589;28;20131;-74
2022/12/21 02:37:17;;;;;;;42.20;15.60;;;;;;;6.28;100.00;100341.66;5010050;28;20561;-74
2022/12/21 02:40:07;;;;;;;44.00;15.88;;;;;;;6.33;100.00;100334.91;5015436;28;20048;-72
2022/12/21 02:45:48;;;;;;;51.42;18.33;;;;;;;6.42;100.00;100345.66;5013069;28;20387;-74
2022/12/21 02:48:31;;;;;;;61.25;19.92;;;;;;;6.46;100.00;100344.34;5010742;28;20462;-72
2022/12/21 02:51:00;;;;;;;52.17;16.45;;;;;;;6.43;100.00;100360.56;5009753;28;20041;-72
2022/12/21 02:53:31;;;;;;;69.78;13.15;;;;;;;6.27;100.00;100350.56;5005462;28;20030;-72
2022/12/21 02:55:57;;;;;;;46.67;9.88;;;;;;;6.04;100.00;100348.28;5018534;28;20395;-73
2022/12/21 02:58:23;;;;;;;135.32;15.82;;;;;;;6.01;100.00;100353.84;5013573;28;20030;-72
2022/12/21 03:00:52;;;;;;;40.88;14.15;;;;;;;6.03;100.00;100354.53;4976405;28;20061;-71
2022/12/21 03:04:00;;;;;;;135.18;21.58;;;;;;;6.05;100.00;100359.69;5026815;28;20034;-71
2022/12/21 03:06:44;;;;;;;35.15;13.20;;;;;;;6.07;100.00;100360.41;4987115;28;20045;-72
2022/12/21 03:09:56;;;;;;;62.13;17.05;;;;;;;6.08;100.00;100364.72;5005554;28;20045;-73
2022/12/21 03:12:33;;;;;;;79.03;19.27;;;;;;;6.23;100.00;100371.25;5009940;28;20037;-73
2022/12/21 03:15:26;;;;;;;86.60;22.85;;;;;;;6.28;100.00;100368.16;5013852;28;20064;-72
2022/12/21 03:18:39;;;;;;;62.97;18.40;;;;;;;6.28;100.00;100369.00;4988847;28;20030;-71
2022/12/21 03:21:12;;;;;;;128.82;26.60;;;;;;;6.24;100.00;100362.28;4930305;28;20452;-72
2022/12/21 03:23:46;;;;;;;139.10;28.65;;;;;;;6.20;100.00;100370.69;5005172;28;20546;-73
2022/12/21 03:26:29;;;;;;;91.95;22.58;;;;;;;6.24;100.00;100366.78;5013142;28;20037;-74
2022/12/21 03:28:58;;;;;;;66.45;20.17;;;;;;;6.26;100.00;100378.06;5026320;28;20052;-74
2022/12/21 03:31:30;;;;;;;165.55;28.35;;;;;;;6.23;100.00;100375.72;5026144;28;20414;-75
2022/12/21 03:34:18;;;;;;;105.35;20.70;;;;;;;6.14;100.00;100369.44;5025113;28;20021;-74
2022/12/21 03:36:54;;;;;;;86.75;20.38;;;;;;;6.08;100.00;100364.72;5026017;28;20043;-74
2022/12/21 03:39:23;;;;;;;80.00;20.85;;;;;;;6.09;100.00;100369.03;5026258;28;20052;-75
2022/12/21 03:42:15;;;;;;;67.50;20.88;;;;;;;6.08;100.00;100370.84;5008511;28;20402;-72
2022/12/21 03:44:46;;;;;;;157.25;27.65;;;;;;;6.09;100.00;100369.88;5026127;28;20489;-72
2022/12/21 03:47:19;;;;;;;79.93;23.38;;;;;;;6.08;100.00;100367.34;5025979;28;20231;-74
2022/12/21 03:49:48;;;;;;;78.28;21.92;;;;;;;6.10;100.00;100370.72;5026031;28;20033;-72
2022/12/21 03:52:18;;;;;;;77.40;22.63;;;;;;;6.10;100.00;100370.72;5026134;28;20029;-72
2022/12/21 03:54:59;;;;;;;57.35;19.10;;;;;;;6.10;100.00;100370.72;5008151;28;20033;-72
2022/12/21 03:57:26;;;;;;;70.10;20.73;;;;;;;6.06;100.00;100364.88;5026008;28;20044;-73
2022/12/21 03:59:55;;;;;;;62.28;21.27;;;;;;;6.05;100.00;100357.06;5017901;28;20079;-72
2022/12/21 04:02:39;;;;;;;60.63;19.40;;;;;;;6.01;100.00;100356.50;5025657;28;20033;-72
2022/12/21 04:05:04;;;;;;;69.60;20.50;;;;;;;5.87;100.00;100360.38;5008110;28;20121;-72
2022/12/21 04:07:33;;;;;;;67.27;19.30;;;;;;;5.77;100.00;100356.91;5013595;28;20104;-72
2022/12/21 04:10:01;;;;;;;55.30;15.50;;;;;;;5.64;100.00;100356.34;5014699;28;20569;-72
2022/12/21 04:12:36;;;;;;;51.55;17.20;;;;;;;5.49;100.00;100351.47;5008436;28;20554;-72
2022/12/21 04:15:09;;;;;;;37.17;13.18;;;;;;;5.31;100.00;100347.03;5010016;28;20418;-72
2022/12/21 04:17:35;;;;;;;69.35;14.98;;;;;;;5.27;100.00;100338.53;5014549;28;20048;-72
2022/12/21 04:20:02;;;;;;;41.55;13.32;;;;;;;5.29;100.00;100349.78;5004813;28;20030;-72
2022/12/21 04:28:07;;;;;;;68.28;19.95;;;;;;;5.41;100.00;100348.72;5006019;28;20537;-72
2022/12/21 04:30:36;;;;;;;63.55;18.65;;;;;;;5.42;100.00;100350.38;5018927;28;20034;-72
2022/12/21 04:33:03;;;;;;;75.93;19.58;;;;;;;5.44;100.00;100348.41;5013914;28;20057;-72
2022/12/21 04:35:28;;;;;;;;;;;;;;;5.49;100.00;100354.13;5013871;28;20054;-72
2022/12/21 04:37:53;;;;;;;73.05;21.70;;;;;;;5.53;100.00;100359.16;5008194;28;19924;-72
2022/12/21 04:40:19;;;;;;;80.80;23.13;;;;;;;5.50;100.00;100369.06;5015621;28;20449;-70
2022/12/21 04:42:44;;;;;;;83.70;22.90;;;;;;;5.57;100.00;100373.78;5018805;28;20037;-71
2022/12/21 04:45:10;;;;;;;82.63;24.17;;;;;;;5.54;100.00;100374.91;5013337;28;20069;-73
2022/12/21 04:47:35;;;;;;;102.93;26.80;;;;;;;5.53;100.00;100369.75;5020504;28;20072;-74
2022/12/21 04:50:01;;;;;;;79.43;23.38;;;;;;;5.49;100.00;100374.47;5008109;28;20128;-74
2022/12/21 04:52:26;;;;;;;81.93;24.05;;;;;;;5.49;100.00;100379.78;5017023;28;20034;-74
2022/12/21 04:54:51;;;;;;;95.93;24.50;;;;;;;5.50;100.00;100378.78;4997415;28;20032;-73
2022/12/21 04:57:17;;;;;;;104.10;25.53;;;;;;;5.50;100.00;100379.66;5014454;28;20045;-71
2022/12/21 04:59:44;;;;;;;88.97;26.10;;;;;;;5.63;100.00;100386.47;5026993;28;20033;-72
2022/12/21 05:02:10;;;;;;;102.05;26.67;;;;;;;5.61;100.00;100385.78;5010958;28;20485;-74
2022/12/21 05:04:35;;;;;;;107.57;27.70;;;;;;;5.56;100.00;100388.00;5028689;28;20021;-71
2022/12/21 05:07:01;;;;;;;100.27;26.67;;;;;;;5.55;100.00;100391.63;5027242;28;20042;-72
2022/12/21 05:09:26;;;;;;;91.33;25.33;;;;;;;5.54;100.00;100390.78;5028811;28;20037;-72
2022/12/21 05:11:53;;;;;;;103.65;27.00;;;;;;;5.59;100.00;100388.56;5028197;28;20033;-75
2022/12/21 05:14:18;;;;;;;;;;;;;;;5.54;100.00;100387.31;5011288;28;20029;-72
2022/12/21 05:16:44;;;;;;;91.82;24.77;;;;;;;5.53;100.00;100389.13;5028603;28;20035;-71
2022/12/21 05:19:09;;;;;;;92.50;28.27;;;;;;;5.45;100.00;100391.63;5019720;28;20125;-74
2022/12/21 05:21:34;;;;;;;110.53;29.20;;;;;;;5.37;100.00;100386.19;5002491;28;20288;-73
2022/12/21 05:24:00;;;;;;;106.45;30.02;;;;;;;5.31;100.00;100382.25;4988098;28;20057;-73
2022/12/21 05:26:25;;;;;;;103.23;30.57;;;;;;;5.34;100.00;100379.34;5024241;28;20515;-72
2022/12/21 05:28:51;;;;;;;89.73;27.63;;;;;;;5.36;100.00;100385.34;5000298;28;20029;-73
2022/12/21 05:31:16;;;;;;;97.87;29.13;;;;;;;5.32;100.00;100389.25;5019631;28;20085;-71
2022/12/21 05:33:41;;;;;;;95.13;28.17;;;;;;;5.35;100.00;100396.06;5019263;28;20030;-72
2022/12/21 05:36:09;;;;;;;100.70;26.83;;;;;;;5.32;100.00;100394.53;5016962;28;20486;-72
2022/12/21 05:38:35;;;;;;;108.72;27.58;;;;;;;5.31;100.00;100398.16;5019585;28;20464;-72
2022/12/21 05:41:01;;;;;;;131.45;30.50;;;;;;;5.29;100.00;100402.72;5006720;28;20028;-72
2022/12/21 05:43:26;;;;;;;96.88;27.45;;;;;;;5.32;100.00;100406.94;4993948;28;20278;-72
2022/12/21 05:45:52;;;;;;;97.00;26.47;;;;;;;5.32;100.00;100413.06;5017221;28;20030;-72
2022/12/21 05:48:18;;;;;;;109.85;27.15;;;;;;;5.33;100.00;100409.44;5018306;28;20048;-72
2022/12/21 05:50:43;;;;;;;87.17;23.70;;;;;;;5.30;100.00;100409.72;5008118;28;20033;-72
2022/12/21 05:53:09;;;;;;;135.23;28.97;;;;;;;5.31;100.00;100416.69;5007910;28;21048;-72
2022/12/21 05:55:35;;;;;;;96.43;26.08;;;;;;;5.23;100.00;100420.00;5024588;28;20406;-71
2022/12/21 05:58:01;;;;;;;95.85;26.17;;;;;;;5.24;100.00;100402.31;5016790;28;20403;-72
2022/12/21 06:00:26;;;;;;;147.10;31.98;;;;;;;5.22;100.00;100406.91;5001865;28;20087;-72
2022/12/21 06:02:52;;;;;;;93.45;25.48;;;;;;;5.15;100.00;100405.78;5004055;28;20033;-72
2022/12/21 06:05:17;;;;;;;96.07;25.53;;;;;;;5.26;100.00;100418.91;5004133;28;20028;-72
2022/12/21 06:07:42;;;;;;;96.53;25.47;;;;;;;5.30;100.00;100412.38;5014468;28;20122;-72
2022/12/21 06:10:08;;;;;;;184.77;29.50;;;;;;;5.25;100.00;100411.94;5006347;28;20736;-72
2022/12/21 06:12:34;;;;;;;89.30;25.23;;;;;;;5.25;100.00;100396.91;4989819;28;20029;-72
2022/12/21 06:15:00;;;;;;;122.45;30.30;;;;;;;5.27;100.00;100396.78;5019449;28;20114;-71
2022/12/21 06:17:27;;;;;;;113.88;25.42;;;;;;;5.26;100.00;100393.25;5006067;28;20132;-72
2022/12/21 06:19:52;;;;;;;97.10;27.60;;;;;;;5.25;100.00;100398.72;5022064;28;20033;-72
2022/12/21 06:22:17;;;;;;;95.13;25.50;;;;;;;5.22;100.00;100386.59;4998009;28;20034;-72
2022/12/21 06:24:43;;;;;;;109.07;25.83;;;;;;;5.24;100.00;100391.72;5004023;28;20276;-72
2022/12/21 06:27:08;;;;;;;92.97;24.23;;;;;;;5.27;100.00;100391.47;5007104;28;20037;-72
2022/12/21 06:29:33;;;;;;;147.63;26.10;;;;;;;5.26;100.00;100395.06;5019065;28;20639;-72
2022/12/21 06:31:59;;;;;;;96.87;25.00;;;;;;;5.22;100.00;100385.72;5015884;28;20482;-72
2022/12/21 06:34:24;;;;;;;103.15;24.27;;;;;;;5.22;100.00;100398.97;5019201;28;20490;-72
2022/12/21 06:36:49;;;;;;;87.73;22.27;;;;;;;5.22;100.00;100401.59;5015774;28;20061;-72
2022/12/21 06:39:15;;;;;;;128.73;29.33;;;;;;;5.18;100.00;100389.66;5017654;28;20065;-71
2022/12/21 06:41:40;;;;;;;97.50;23.10;;;;;;;5.13;100.00;100391.84;5008074;28;20029;-73
2022/12/21 06:44:07;;;;;;;112.40;25.13;;;;;;;5.19;100.00;100396.59;5026433;28;20036;-71
2022/12/21 06:46:32;;;;;;;195.60;28.35;;;;;;;5.17;100.00;100394.06;5022223;28;20613;-74
2022/12/21 06:48:58;;;;;;;152.80;28.73;;;;;;;5.14;100.00;100399.66;4997850;28;20340;-71
2022/12/21 06:51:23;;;;;;;125.10;24.93;;;;;;;5.09;100.00;100393.94;5019039;28;20973;-72
2022/12/21 06:53:51;;;;;;;95.05;22.70;;;;;;;5.15;100.00;100400.47;5007283;28;20037;-74
2022/12/21 06:56:19;;;;;;;136.07;26.45;;;;;;;5.18;100.00;100405.53;5018645;28;20050;-73
2022/12/21 06:58:45;;;;;;;73.72;19.25;;;;;;;5.19;100.00;100401.88;5016349;28;20051;-72
2022/12/21 07:01:19;;;;;;;85.38;23.27;;;;;;;5.22;100.00;100407.75;5015698;28;20519;-73
2022/12/21 07:03:45;;;;;;;146.23;26.52;;;;;;;5.23;100.00;100413.88;4998805;28;20545;-73
2022/12/21 07:06:12;;;;;;;101.03;20.50;;;;;;;5.21;100.00;100415.81;5010507;28;20025;-71
2022/12/21 07:08:38;;;;;;;95.05;21.88;;;;;;;5.23;100.00;100414.72;5004891;28;20033;-72
2022/12/21 07:11:06;;;;;;;86.25;21.27;;;;;;;5.23;100.00;100421.81;5018903;28;20896;-72
2022/12/21 07:13:34;;;;;;;100.05;22.80;;;;;;;5.20;100.00;100422.09;5012250;28;20079;-71
2022/12/21 07:16:00;;;;;;;87.55;21.58;;;;;;;5.22;100.00;100428.94;5004922;28;20037;-72
2022/12/21 07:18:25;;;;;;;105.13;23.17;;;;;;;5.15;100.00;100432.25;5010361;28;20026;-72
2022/12/21 07:20:58;;;;;;;116.37;22.33;;;;;;;5.19;100.00;100438.94;5003922;28;20037;-71
2022/12/21 07:23:26;;;;;;;121.70;23.02;;;;;;;5.19;100.00;100439.78;5013055;28;20176;-73
2022/12/21 07:25:52;;;;;;;76.50;18.25;;;;;;;5.14;100.00;100433.22;5025460;28;20128;-72
2022/12/21 07:28:18;;;;;;;116.85;22.13;;;;;;;5.13;100.00;100439.47;5019512;28;20473;-72
2022/12/21 07:30:47;;;;;;;73.45;17.83;;;;;;;5.08;100.00;100446.03;4979258;28;20029;-72
2022/12/21 07:33:19;;;;;;;75.00;17.65;;;;;;;5.06;100.00;100453.25;5016631;28;20117;-71
2022/12/21 07:35:45;;;;;;;71.93;17.98;;;;;;;5.10;100.00;100452.97;5000335;28;20029;-71
2022/12/21 07:38:11;;;;;;;;;;;;;;;5.08;100.00;100451.31;5022347;28;20033;-71
2022/12/21 07:40:40;;;;;;;86.97;19.23;;;;;;;5.04;100.00;100452.56;5016844;28;19925;-72
2022/12/21 07:43:09;;;;;;;102.10;20.30;;;;;;;5.05;100.00;100446.28;5014977;28;20058;-71
2022/12/21 07:45:42;;;;;;;174.02;24.10;;;;;;;4.93;100.00;100439.41;5018628;28;20025;-72
2022/12/21 07:48:12;;;;;;;110.97;20.63;;;;;;;4.95;100.00;100442.78;5007866;28;20037;-72
2022/12/21 07:50:37;;;;;;;121.83;21.00;;;;;;;4.98;100.00;100439.00;4990828;28;20655;-71
2022/12/21 07:53:03;;;;;;;115.53;19.60;;;;;;;4.97;100.00;100442.66;5010969;28;20380;-71
2022/12/21 07:55:30;;;;;;;108.00;20.17;;;;;;;4.95;100.00;100436.66;5018067;28;20280;-72
2022/12/21 07:57:55;;;;;;;66.75;15.93;;;;;;;4.96;100.00;100436.50;5010378;28;20037;-71
2022/12/21 08:00:22;;;;;;;102.97;17.80;;;;;;;4.91;100.00;100438.72;5016456;28;20033;-71
2022/12/21 08:02:47;;;;;;;;;;;;;;;4.98;100.00;100457.53;5016065;28;20482;-71
2022/12/21 08:05:13;;;;;;;71.03;16.85;;;;;;;4.96;100.00;100449.72;5015668;28;19920;-72
2022/12/21 08:07:38;;;;;;;100.80;17.47;;;;;;;4.89;100.00;100443.28;5014412;28;20280;-71
2022/12/21 08:10:04;;;;;;;108.40;19.07;;;;;;;4.90;100.00;100446.78;5015291;28;20068;-72
2022/12/21 08:12:29;;;;;;;41.88;13.88;;;;;;;4.88;100.00;100444.28;5008764;28;20640;-72
2022/12/21 08:14:54;;;;;;;60.73;15.67;;;;;;;4.93;100.00;100444.72;5000686;28;20033;-72
2022/12/21 08:17:21;;;;;;;79.43;15.93;;;;;;;4.90;100.00;100452.91;5025089;28;20079;-72
2022/12/21 08:19:46;;;;;;;68.80;16.08;;;;;;;4.89;100.00;100445.09;5023415;28;20041;-71
2022/12/21 08:22:11;;;;;;;76.07;17.37;;;;;;;4.91;100.00;100437.88;5009613;28;20069;-71
2022/12/21 08:24:37;;;;;;;55.10;16.60;;;;;;;4.89;100.00;100437.16;5020908;28;20091;-71
2022/12/21 08:27:02;;;;;;;220.95;25.25;;;;;;;4.86;100.00;100443.56;5008248;28;20041;-72
2022/12/21 08:29:27;;;;;;;98.00;18.50;;;;;;;4.96;100.00;100454.19;5011460;28;20648;-71
2022/12/21 08:31:53;;;;;;;73.47;17.07;;;;;;;5.00;100.00;100460.88;5006110;28;20042;-71
2022/12/21 08:34:18;;;;;;;89.17;17.83;;;;;;;5.00;100.00;100464.38;5010241;28;20029;-71
2022/12/21 08:36:44;;;;;;;53.30;16.33;;;;;;;4.96;100.00;100462.13;5006903;28;20506;-71
2022/12/21 08:39:09;;;;;;;53.30;15.37;;;;;;;5.03;100.00;100456.19;5018920;28;20288;-71
2022/12/21 08:41:34;;;;;;;73.33;16.80;;;;;;;5.00;100.00;100452.94;5010607;28;20059;-72
2022/12/21 08:44:00;;;;;;;81.07;18.55;;;;;;;5.06;100.00;100455.06;5020318;28;20044;-72
2022/12/21 08:46:25;;;;;;;81.03;16.92;;;;;;;4.99;100.00;100449.47;5003176;28;20042;-71
2022/12/21 08:48:51;;;;;;;57.97;13.70;;;;;;;5.00;100.00;100447.66;5019382;28;20133;-72
2022/12/21 08:51:16;;;;;;;58.80;14.20;;;;;;;4.97;100.00;100448.75;5019334;28;20499;-72
2022/12/21 08:53:42;;;;;;;67.07;14.82;;;;;;;5.00;100.00;100452.94;5018818;28;20018;-72
2022/12/21 08:56:08;;;;;;;46.77;12.27;;;;;;;4.96;100.00;100459.47;5011064;28;20049;-72
2022/12/21 08:58:34;;;;;;;47.15;12.65;;;;;;;4.91;100.00;100457.22;4997614;28;20782;-72
2022/12/21 09:01:00;;;;;;;;;;;;;;;4.95;100.00;100448.06;5016865;28;20499;-72
2022/12/21 09:03:26;;;;;;;48.55;12.88;;;;;;;4.95;100.00;100442.78;5020295;28;19924;-72
2022/12/21 09:05:59;;;;;;;;;;;;;;;5.03;100.00;100444.72;5002675;28;20084;-72
2022/12/21 09:08:25;;;;;;;48.70;12.88;;;;;;;5.04;100.00;100452.56;5019430;28;20012;-71
2022/12/21 09:10:59;;;;;;;83.70;16.33;;;;;;;5.03;100.00;100448.25;5017198;28;20048;-72
2022/12/21 09:13:25;;;;;;;65.13;13.68;;;;;;;5.05;100.00;100462.16;5019653;28;20065;-72
2022/12/21 09:15:50;;;;;;;98.40;17.53;;;;;;;5.12;100.00;100465.09;5011914;28;20069;-72
2022/12/21 09:18:15;;;;;;;49.63;14.67;;;;;;;5.19;100.00;100460.13;5018784;28;20033;-72
2022/12/21 09:20:41;;;;;;;86.67;15.53;;;;;;;5.05;100.00;100438.34;5018359;28;20044;-72
2022/12/21 09:23:06;;;;;;;63.87;16.47;;;;;;;5.22;100.00;100454.53;5010421;28;20046;-72
2022/12/21 09:25:32;;;;;;;53.37;14.80;;;;;;;5.26;100.00;100451.50;5019128;28;20299;-72
2022/12/21 09:28:01;;;;;;;78.50;16.88;;;;;;;5.21;100.00;100452.88;5014922;28;20044;-72
2022/12/21 09:30:27;;;;;;;49.22;13.32;;;;;;;5.28;100.00;100443.44;5019392;28;20030;-72
2022/12/21 09:32:52;;;;;;;;;;;;;;;5.27;100.00;100447.06;5016553;28;20415;-71
2022/12/21 09:35:17;;;;;;;37.85;13.10;;;;;;;5.39;100.00;100453.91;5016785;28;19921;-72
2022/12/21 09:37:43;;;;;;;55.43;14.07;;;;;;;5.38;100.00;100449.56;5006997;28;20033;-72
2022/12/21 09:40:15;;;;;;;33.90;11.63;;;;;;;5.63;100.00;100465.94;5016450;28;20149;-71
2022/12/21 09:43:00;;;;;;;54.08;15.32;;;;;;;5.83;100.00;100459.69;5000101;28;20056;-72
2022/12/21 09:45:39;;;;;;;38.22;14.25;;;;;;;6.01;100.00;100467.78;5019000;28;20121;-72
2022/12/21 09:48:15;;;;;;;43.03;14.20;;;;;;;5.90;100.00;100465.28;5015608;28;20040;-72
2022/12/21 09:51:07;;;;;;;35.10;11.43;;;;;;;5.80;100.00;100462.59;5017684;28;20116;-72
2022/12/21 09:53:39;;;;;;;47.10;14.10;;;;;;;5.68;100.00;100455.75;5001877;28;20041;-71
2022/12/21 09:56:07;;;;;;;43.83;12.23;;;;;;;5.60;100.00;100434.44;5012601;28;20044;-71
2022/12/21 09:58:40;;;;;;;42.17;12.93;;;;;;;5.60;100.00;100422.03;4993209;28;20097;-72
2022/12/21 10:01:28;;;;;;;34.63;10.88;;;;;;;5.48;100.00;100408.06;5012391;28;20120;-72
2022/12/21 10:04:21;;;;;;;35.85;10.15;;;;;;;5.36;100.00;100409.19;4998470;28;20188;-71
2022/12/21 10:07:08;;;;;;;52.13;11.88;;;;;;;5.36;100.00;100411.84;4992280;28;20485;-71
2022/12/21 10:09:43;;;;;;;35.97;10.95;;;;;;;5.39;100.00;100405.44;5018077;28;20584;-71
2022/12/21 10:12:25;;;;;;;49.55;13.13;;;;;;;5.39;100.00;100400.97;5018709;28;20651;-73
2022/12/21 10:14:57;;;;;;;34.00;10.82;;;;;;;5.43;100.00;100399.72;5000088;28;20041;-73
2022/12/21 10:17:48;;;;;;;38.75;11.27;;;;;;;5.44;100.00;100401.38;5007969;28;20129;-72
2022/12/21 10:20:37;;;;;;;48.22;12.82;;;;;;;5.38;100.00;100395.78;5018697;28;20080;-70
2022/12/21 10:23:11;;;;;;;45.85;14.52;;;;;;;5.47;100.00;100401.09;5018554;28;20037;-71
2022/12/21 10:25:46;;;;;;;62.03;13.25;;;;;;;5.35;100.00;100388.97;5014797;28;20102;-72
2022/12/21 10:28:23;;;;;;;32.00;10.75;;;;;;;5.47;100.00;100393.16;5005949;28;20059;-73
2022/12/21 10:31:03;;;;;;;56.80;13.38;;;;;;;5.37;100.00;100391.47;5001879;28;20155;-70
2022/12/21 10:33:29;;;;;;;46.47;12.45;;;;;;;5.27;100.00;100365.00;5013797;28;20868;-70
2022/12/21 10:36:00;;;;;;;53.65;13.20;;;;;;;5.39;100.00;100382.44;5014424;28;20060;-70
2022/12/21 10:38:28;;;;;;;38.17;12.07;;;;;;;5.40;100.00;100375.31;5016805;28;20052;-73
2022/12/21 10:40:55;;;;;;;40.08;12.30;;;;;;;5.49;100.00;100380.59;5014873;28;20038;-70
2022/12/21 10:43:20;;;;;;;;;;;;;;;5.44;100.00;100364.31;5017843;28;20033;-73
2022/12/21 10:45:46;;;;;;;42.53;11.70;;;;;;;5.25;100.00;100346.59;4997983;28;19967;-73
2022/12/21 10:48:12;;;;;;;37.47;10.73;;;;;;;5.37;100.00;100330.59;5006309;28;20044;-72
2022/12/21 10:50:42;;;;;;;35.58;12.63;;;;;;;5.50;100.00;100342.59;5017040;28;20187;-70
2022/12/21 10:53:25;;;;;;;34.10;11.43;;;;;;;5.37;100.00;100326.13;5005883;28;20091;-73
2022/12/21 10:55:56;;;;;;;25.73;9.43;;;;;;;5.58;100.00;100333.09;5015500;28;20144;-73
2022/12/21 10:58:31;;;;;;;34.92;11.68;;;;;;;5.67;100.00;100332.25;5017151;28;20033;-73
2022/12/21 11:01:05;;;;;;;32.97;10.50;;;;;;;5.61;100.00;100316.91;5020031;28;20041;-74
2022/12/21 11:03:34;;;;;;;32.60;11.63;;;;;;;5.65;100.00;100326.25;5014986;28;20108;-72
2022/12/21 11:06:10;;;;;;;29.17;11.50;;;;;;;5.62;100.00;100329.16;5011458;28;20029;-70
2022/12/21 11:08:46;;;;;;;44.88;12.20;;;;;;;5.49;100.00;100314.41;5004630;28;20041;-72
2022/12/21 11:11:28;;;;;;;55.03;13.25;;;;;;;5.46;100.00;100314.72;5015875;28;20057;-73
2022/12/21 11:14:03;;;;;;;44.75;14.48;;;;;;;5.35;100.00;100309.53;5010363;28;20033;-70
2022/12/21 11:16:32;;;;;;;48.45;14.32;;;;;;;5.59;100.00;100318.88;5014314;28;20136;-72
2022/12/21 11:19:00;;;;;;;38.35;13.38;;;;;;;5.66;100.00;100327.91;5010596;28;20038;-73
2022/12/21 11:21:49;;;;;;;34.47;12.20;;;;;;;5.78;100.00;100323.31;5017033;28;20449;-71
2022/12/21 11:24:22;;;;;;;30.55;11.73;;;;;;;5.77;100.00;100317.19;4999894;28;20041;-73
2022/12/21 11:26:53;;;;;;;26.55;11.00;;;;;;;5.60;100.00;100304.66;5001207;28;20609;-73
2022/12/21 11:29:31;;;;;;;33.20;12.15;;;;;;;5.55;100.00;100285.69;5006572;28;20107;-69
2022/12/21 11:32:04;;;;;;;40.70;12.98;;;;;;;5.55;100.00;100285.69;5003688;28;20039;-72